Time;durP1;ratioP1;P1;durP2;ratioP2;P2;SDS_P1;SDS_P2;PMS_P1;PMS_P2;Temp;Humidity;BMP_temperature;BMP_pressure;BME280_temperature;BME280_humidity;BME280_pressure;Samples;Min_cycle;Max_cycle;Signal;HPM_P1;HPM_P2
2023/10/10 00:01:07;;;;;;;5.78;2.58;;;38.90;31.10;;;;;;5046222;28;20961;-57
2023/10/10 00:03:39;;;;;;;12.07;2.58;;;38.80;31.10;;;;;;5057441;28;20017;-55
2023/10/10 00:06:08;;;;;;;7.25;2.47;;;38.80;31.30;;;;;;5047649;28;20032;-57
2023/10/10 00:08:40;;;;;;;13.80;2.00;;;38.70;31.60;;;;;;5055443;28;20546;-54
2023/10/10 00:11:14;;;;;;;6.55;2.00;;;38.70;31.30;;;;;;5055502;28;20021;-59
2023/10/10 00:13:52;;;;;;;10.50;2.50;;;38.70;31.50;;;;;;5052996;28;20437;-55
2023/10/10 00:16:41;;;;;;;16.65;3.10;;;38.60;32.10;;;;;;5060375;28;20047;-55
2023/10/10 00:21:43;;;;;;;34.45;30.75;;;38.40;32.10;;;;;;5051526;28;20022;-65
2023/10/10 00:24:12;;;;;;;15.48;10.98;;;38.30;32.30;;;;;;5068518;28;20021;-64
2023/10/10 00:26:44;;;;;;;6.78;2.75;;;38.30;31.90;;;;;;5065568;28;20024;-64
2023/10/10 00:29:11;;;;;;;9.60;2.38;;;38.20;32.60;;;;;;5051213;28;20028;-57
2023/10/10 00:31:38;;;;;;;11.98;2.20;;;38.10;32.10;;;;;;5052598;28;20017;-57
2023/10/10 00:34:07;;;;;;;7.07;2.03;;;38.00;32.10;;;;;;5063024;28;20009;-55
2023/10/10 00:36:35;;;;;;;12.35;2.47;;;37.90;32.20;;;;;;5058823;28;20013;-53
2023/10/10 00:41:52;;;;;;;3.92;1.98;;;37.80;32.60;;;;;;5063950;28;20023;-57
2023/10/10 00:44:19;;;;;;;8.50;2.40;;;37.70;32.90;;;;;;5062260;28;20021;-55
2023/10/10 00:46:54;;;;;;;4.63;2.65;;;37.60;33.00;;;;;;5051884;28;20151;-56
2023/10/10 00:49:25;;;;;;;9.38;2.60;;;37.60;33.40;;;;;;5069205;28;20024;-55
2023/10/10 00:51:54;;;;;;;16.40;2.80;;;37.50;33.80;;;;;;5050374;28;20088;-56
2023/10/10 00:54:31;;;;;;;8.05;2.45;;;37.40;32.90;;;;;;5049878;28;20013;-55
2023/10/10 00:56:59;;;;;;;10.88;2.80;;;37.30;32.90;;;;;;5051973;28;20033;-56
2023/10/10 00:59:42;;;;;;;24.23;3.10;;;37.20;32.50;;;;;;5051851;28;20051;-57
2023/10/10 01:02:12;;;;;;;17.30;2.33;;;37.20;30.70;;;;;;5063078;28;20028;-56
2023/10/10 01:04:48;;;;;;;14.18;2.35;;;37.10;30.40;;;;;;5066511;28;20017;-55
2023/10/10 01:07:19;;;;;;;18.20;2.40;;;37.20;30.20;;;;;;5059542;28;20045;-56
2023/10/10 01:10:07;;;;;;;10.35;2.08;;;37.10;29.80;;;;;;5060712;28;21305;-57
2023/10/10 01:12:39;;;;;;;14.07;1.90;;;37.10;29.60;;;;;;5058048;28;20066;-54
2023/10/10 01:15:24;;;;;;;16.17;2.08;;;37.10;28.90;;;;;;5068847;28;20108;-58
2023/10/10 01:17:57;;;;;;;9.57;1.50;;;37.00;28.50;;;;;;5058951;28;20021;-53
2023/10/10 01:20:36;;;;;;;10.38;1.85;;;36.90;29.20;;;;;;5052364;28;20139;-54
2023/10/10 01:23:03;;;;;;;12.70;1.30;;;36.90;28.90;;;;;;5057512;28;20104;-56
2023/10/10 01:28:13;;;;;;;8.23;2.13;;;36.70;29.60;;;;;;5051428;28;20103;-55
2023/10/10 01:31:28;;;;;;;15.68;1.73;;;36.70;30.00;;;;;;5056004;28;20095;-55
2023/10/10 01:33:41;;;;;;;8.15;1.60;;;36.60;30.40;;;;;;5053849;28;20024;-55
2023/10/10 01:36:12;;;;;;;9.98;1.63;;;36.40;30.80;;;;;;5052482;28;20020;-53
2023/10/10 01:38:44;;;;;;;14.80;3.20;;;36.30;31.10;;;;;;5062226;28;20088;-59
2023/10/10 01:41:48;;;;;;;19.20;2.20;;;36.30;32.00;;;;;;5052524;28;20098;-58
2023/10/10 01:44:12;;;;;;;20.67;2.58;;;36.20;31.60;;;;;;5054187;28;21052;-58
2023/10/10 01:46:42;;;;;;;14.93;2.10;;;36.10;32.00;;;;;;5062093;28;20531;-61
2023/10/10 01:49:22;;;;;;;12.57;1.90;;;36.00;32.20;;;;;;5048629;28;20013;-56
2023/10/10 01:51:55;;;;;;;4.40;1.77;;;36.00;32.30;;;;;;5067468;28;20052;-60
2023/10/10 01:54:39;;;;;;;12.40;1.80;;;35.90;32.40;;;;;;5052578;28;20014;-57
2023/10/10 01:57:07;;;;;;;14.15;2.20;;;35.90;32.70;;;;;;5049017;28;20036;-57
2023/10/10 01:59:38;;;;;;;7.68;1.80;;;35.80;32.90;;;;;;5051025;28;20100;-60
2023/10/10 02:02:13;;;;;;;17.98;2.72;;;35.70;32.90;;;;;;5048067;28;20499;-62
2023/10/10 02:04:41;;;;;;;9.47;2.10;;;35.70;33.20;;;;;;5066727;28;20031;-63
2023/10/10 02:07:15;;;;;;;9.20;1.80;;;35.60;33.20;;;;;;5052224;28;20025;-61
2023/10/10 02:09:43;;;;;;;5.60;1.70;;;35.60;33.80;;;;;;5063795;28;20012;-53
2023/10/10 02:12:16;;;;;;;7.20;1.80;;;35.50;33.90;;;;;;5051216;28;20028;-57
2023/10/10 02:14:43;;;;;;;5.63;1.90;;;35.50;34.00;;;;;;5055201;28;20019;-56
2023/10/10 02:17:21;;;;;;;10.52;2.00;;;35.50;34.30;;;;;;5050146;28;20473;-58
2023/10/10 02:20:17;;;;;;;5.00;2.20;;;35.40;34.40;;;;;;5061240;28;20443;-58
2023/10/10 02:22:47;;;;;;;4.35;1.63;;;35.40;34.60;;;;;;5056329;28;20013;-59
2023/10/10 02:28:00;;;;;;;4.25;2.05;;;35.30;35.00;;;;;;5067321;28;20016;-59
2023/10/10 02:30:37;;;;;;;5.32;2.30;;;35.10;35.00;;;;;;5050735;28;20031;-56
2023/10/10 02:33:16;;;;;;;6.40;2.85;;;35.10;35.40;;;;;;5064332;28;20326;-56
2023/10/10 02:35:54;;;;;;;8.95;2.45;;;35.00;35.60;;;;;;5068251;28;20100;-59
2023/10/10 02:38:23;;;;;;;7.80;2.00;;;34.90;35.70;;;;;;5063206;28;20043;-56
2023/10/10 02:40:56;;;;;;;10.88;2.15;;;34.90;36.60;;;;;;5059514;28;20441;-57
2023/10/10 02:43:45;;;;;;;12.80;2.75;;;34.80;36.10;;;;;;5063885;28;20024;-55
2023/10/10 02:46:33;;;;;;;19.52;3.15;;;34.70;36.40;;;;;;5059441;28;20052;-59
2023/10/10 02:49:02;;;;;;;14.60;3.70;;;34.60;36.40;;;;;;5052180;28;20105;-56
2023/10/10 02:51:31;;;;;;;12.57;3.33;;;34.50;36.40;;;;;;5056538;28;20013;-60
2023/10/10 02:53:58;;;;;;;11.10;2.28;;;34.40;36.80;;;;;;5060419;28;20009;-59
2023/10/10 02:56:24;;;;;;;7.07;2.53;;;34.40;36.80;;;;;;5059995;28;20036;-58
2023/10/10 02:58:54;;;;;;;6.68;2.22;;;34.30;36.90;;;;;;5055985;28;20102;-59
2023/10/10 03:04:08;;;;;;;9.13;2.38;;;34.20;37.10;;;;;;5055269;28;20423;-55
2023/10/10 03:06:35;;;;;;;9.82;2.50;;;34.20;37.20;;;;;;5049825;28;20112;-57
2023/10/10 03:09:38;;;;;;;5.00;2.17;;;34.10;37.50;;;;;;5054868;28;20040;-55
2023/10/10 03:12:03;;;;;;;10.30;2.50;;;34.00;37.60;;;;;;5048503;28;20017;-57
2023/10/10 03:14:34;;;;;;;17.80;2.80;;;33.90;37.70;;;;;;5048202;28;20492;-58
2023/10/10 03:17:06;;;;;;;7.03;2.50;;;33.90;37.90;;;;;;5064672;28;20021;-56
2023/10/10 03:19:38;;;;;;;8.80;2.13;;;33.80;37.80;;;;;;5063505;28;20021;-58
2023/10/10 03:22:30;;;;;;;7.68;2.13;;;33.80;38.00;;;;;;5055154;28;20016;-59
2023/10/10 03:28:04;;;;;;;8.52;2.47;;;33.70;38.10;;;;;;5018058;28;20079;-56
2023/10/10 03:30:50;;;;;;;10.87;3.40;;;33.60;38.20;;;;;;5024261;28;20030;-56
2023/10/10 03:33:35;;;;;;;22.43;3.03;;;33.60;38.20;;;;;;5012153;28;20108;-57
2023/10/10 03:36:38;;;;;;;11.73;3.38;;;33.50;38.40;;;;;;5023047;28;20032;-58
2023/10/10 05:25:37;;;;;;;9.98;3.53;;;32.40;37.10;;;;;;5053962;28;20039;-55
2023/10/10 05:28:03;;;;;;;12.55;3.03;;;32.40;37.20;;;;;;5055977;28;20021;-55
2023/10/10 05:30:45;;;;;;;12.73;3.15;;;32.30;37.40;;;;;;5060339;28;20524;-61
2023/10/10 05:33:13;;;;;;;6.78;2.97;;;32.30;37.80;;;;;;5067392;28;20035;-59
2023/10/10 05:35:47;;;;;;;13.23;3.25;;;32.20;37.90;;;;;;5063170;28;20019;-56
2023/10/10 05:38:17;;;;;;;8.65;3.25;;;32.10;38.00;;;;;;5058334;28;20017;-58
2023/10/10 05:40:44;;;;;;;29.85;7.03;;;32.10;37.90;;;;;;5052720;28;20112;-61
2023/10/10 05:43:17;;;;;;;29.27;10.48;;;32.00;37.70;;;;;;5053438;28;20036;-63
2023/10/10 05:45:44;;;;;;;17.80;8.02;;;32.00;37.40;;;;;;5053705;28;20033;-64
2023/10/10 05:48:14;;;;;;;19.80;5.15;;;32.00;37.10;;;;;;5055591;28;20058;-61
2023/10/10 05:50:41;;;;;;;21.30;3.78;;;32.00;37.10;;;;;;5054790;28;20401;-62
2023/10/10 05:53:08;;;;;;;11.20;3.15;;;32.00;36.60;;;;;;5052672;28;20017;-63
2023/10/10 05:55:35;;;;;;;7.45;2.70;;;31.90;35.90;;;;;;5058617;28;20033;-64
2023/10/10 05:58:02;;;;;;;10.60;2.70;;;32.00;35.80;;;;;;5054982;28;20530;-62
2023/10/10 06:00:36;;;;;;;6.95;2.63;;;32.00;35.40;;;;;;5055859;28;20381;-61
2023/10/10 06:03:06;;;;;;;8.20;2.80;;;32.00;35.90;;;;;;5052141;28;20361;-65
2023/10/10 06:05:40;;;;;;;11.80;2.88;;;31.90;35.80;;;;;;5048344;28;20122;-59
2023/10/10 06:08:07;;;;;;;11.85;2.80;;;31.90;35.80;;;;;;5051443;28;20020;-58
2023/10/10 06:10:34;;;;;;;8.30;2.95;;;31.80;35.40;;;;;;5064115;28;20024;-58
2023/10/10 06:13:04;;;;;;;8.43;2.65;;;31.80;35.70;;;;;;5055077;28;20156;-57
2023/10/10 06:15:34;;;;;;;4.03;2.22;;;31.80;35.40;;;;;;5049562;28;20078;-57
2023/10/10 06:18:14;;;;;;;7.00;2.05;;;31.80;35.40;;;;;;5052091;28;20118;-54
2023/10/10 06:20:44;;;;;;;11.10;2.60;;;31.70;35.50;;;;;;5050985;28;20104;-57
2023/10/10 06:23:14;;;;;;;7.32;2.15;;;31.80;35.80;;;;;;5051513;28;20055;-58
2023/10/10 06:25:42;;;;;;;7.68;2.30;;;31.70;35.60;;;;;;5052486;28;20031;-56
2023/10/10 06:28:25;;;;;;;8.32;2.08;;;31.70;35.70;;;;;;5056032;28;20017;-57
2023/10/10 06:30:53;;;;;;;9.90;2.15;;;31.60;35.90;;;;;;5055441;28;20020;-57
2023/10/10 06:33:33;;;;;;;6.20;2.08;;;31.60;36.20;;;;;;5053933;28;20451;-59
2023/10/10 06:41:42;;;;;;;9.38;2.65;;;31.40;36.60;;;;;;5052227;28;20575;-58
2023/10/10 06:44:15;;;;;;;10.50;3.10;;;31.30;36.20;;;;;;5052369;28;20021;-57
2023/10/10 06:46:49;;;;;;;23.88;2.85;;;31.20;36.80;;;;;;5053169;28;20040;-59
2023/10/10 06:49:15;;;;;;;10.80;2.70;;;31.10;36.40;;;;;;5050524;28;20352;-57
2023/10/10 06:51:42;;;;;;;8.88;3.13;;;31.10;35.70;;;;;;5048820;28;20385;-58
2023/10/10 06:54:19;;;;;;;12.13;3.13;;;31.10;35.40;;;;;;5052703;28;20009;-56
2023/10/10 06:57:21;;;;;;;12.45;2.45;;;31.20;35.20;;;;;;5053662;28;20139;-59
2023/10/10 06:59:41;;;;;;;13.90;2.72;;;31.10;35.00;;;;;;5049973;28;20055;-55
2023/10/10 07:02:19;;;;;;;13.00;2.92;;;31.10;35.20;;;;;;5051722;28;20029;-57
2023/10/10 07:04:55;;;;;;;5.30;2.60;;;31.10;35.10;;;;;;5051156;28;20081;-56
2023/10/10 07:07:26;;;;;;;11.03;8.43;;;31.10;34.80;;;;;;5053024;28;20112;-59
2023/10/10 07:09:57;;;;;;;14.82;10.82;;;31.00;34.80;;;;;;5050484;28;20021;-58
2023/10/10 07:12:28;;;;;;;8.30;7.50;;;31.00;34.80;;;;;;5051277;28;20358;-56
2023/10/10 07:14:55;;;;;;;12.60;8.55;;;31.00;35.00;;;;;;5052541;28;20021;-56
2023/10/10 07:17:27;;;;;;;23.77;17.30;;;31.00;35.10;;;;;;5053227;28;20017;-54
2023/10/10 07:22:33;;;;;;;28.63;19.90;;;30.80;35.70;;;;;;5052231;28;20077;-57
2023/10/10 07:25:07;;;;;;;35.50;20.02;;;30.80;35.60;;;;;;5050662;28;20505;-55
2023/10/10 07:27:39;;;;;;;33.78;19.15;;;30.80;35.60;;;;;;5052252;28;20505;-58
2023/10/10 07:30:20;;;;;;;8.43;2.33;;;30.80;35.70;;;;;;5055576;28;20029;-58
2023/10/10 07:32:50;;;;;;;9.85;2.30;;;30.70;35.30;;;;;;5055999;28;20021;-56
2023/10/10 07:35:19;;;;;;;9.23;2.45;;;30.70;35.50;;;;;;5056631;28;20104;-56
2023/10/10 07:37:46;;;;;;;13.25;2.75;;;30.70;36.40;;;;;;5059427;28;20021;-55
2023/10/10 07:40:21;;;;;;;5.03;2.20;;;30.70;35.90;;;;;;5053971;28;20021;-58
2023/10/10 07:42:50;;;;;;;11.73;2.88;;;30.60;36.00;;;;;;5055511;28;20041;-58
2023/10/10 07:45:27;;;;;;;8.95;2.63;;;30.60;37.30;;;;;;5056238;28;20029;-58
2023/10/10 07:50:27;;;;;;;13.10;2.88;;;30.40;37.70;;;;;;5055772;28;20005;-54
2023/10/10 07:52:56;;;;;;;10.85;2.60;;;30.30;37.10;;;;;;5056132;28;20023;-58
2023/10/10 07:55:23;;;;;;;10.77;2.90;;;30.30;37.90;;;;;;5056938;28;20032;-58
2023/10/10 07:57:56;;;;;;;6.03;2.60;;;30.20;38.00;;;;;;5054843;28;20041;-59
2023/10/10 08:00:27;;;;;;;6.57;3.17;;;30.20;38.60;;;;;;5054589;28;20009;-56
2023/10/10 08:02:53;;;;;;;10.77;3.30;;;30.20;37.80;;;;;;5057189;28;20012;-55
2023/10/10 08:05:20;;;;;;;7.25;2.60;;;30.10;38.10;;;;;;5054959;28;20090;-55
2023/10/10 08:07:47;;;;;;;7.97;2.20;;;30.10;37.60;;;;;;5057460;28;20017;-55
2023/10/10 08:13:21;;;;;;;7.28;2.22;;;30.10;37.60;;;;;;4987834;28;20022;-56
2023/10/10 08:15:56;;;;;;;3.50;1.65;;;30.20;37.70;;;;;;4988480;28;20030;-57
2023/10/10 08:21:11;;;;;;;5.13;2.33;;;30.10;37.80;;;;;;4987089;28;20454;-57
2023/10/10 08:23:49;;;;;;;4.88;1.90;;;30.00;37.80;;;;;;4986423;28;20035;-58
2023/10/10 08:26:29;;;;;;;6.03;2.25;;;30.00;38.60;;;;;;4987490;28;20558;-57
2023/10/10 08:28:55;;;;;;;6.10;2.28;;;29.90;38.30;;;;;;4973295;28;20542;-58
2023/10/10 08:31:25;;;;;;;12.13;2.08;;;29.90;38.50;;;;;;4988366;28;20030;-58
2023/10/10 08:33:51;;;;;;;8.05;2.30;;;29.80;38.30;;;;;;4986985;28;20475;-58
2023/10/10 08:36:24;;;;;;;10.95;2.38;;;29.80;38.10;;;;;;4987232;28;20518;-57
2023/10/10 08:38:58;;;;;;;6.00;2.50;;;29.80;37.90;;;;;;4987868;28;20160;-56
2023/10/10 08:41:32;;;;;;;4.78;2.20;;;29.70;38.10;;;;;;4987576;28;20032;-57
2023/10/10 08:44:01;;;;;;;6.95;2.25;;;29.70;38.30;;;;;;5018767;28;20029;-58
2023/10/10 08:46:32;;;;;;;4.93;2.13;;;29.60;38.80;;;;;;5052737;28;20016;-56
2023/10/10 08:49:00;;;;;;;8.25;2.53;;;29.60;39.40;;;;;;5054841;28;20020;-58
2023/10/10 08:51:34;;;;;;;7.75;2.70;;;29.50;40.10;;;;;;5060313;28;20036;-57
2023/10/10 08:54:02;;;;;;;8.40;2.28;;;29.50;40.00;;;;;;5059473;28;20419;-57
2023/10/10 08:56:37;;;;;;;8.00;2.13;;;29.40;40.40;;;;;;5054373;28;20056;-56
2023/10/10 08:59:06;;;;;;;6.28;2.80;;;29.30;40.80;;;;;;5058799;28;20431;-54
2023/10/10 09:01:35;;;;;;;9.70;2.53;;;29.30;40.50;;;;;;5053582;28;20017;-53
2023/10/10 09:04:03;;;;;;;8.98;2.28;;;29.30;41.50;;;;;;5054063;28;20033;-55
2023/10/10 09:06:51;;;;;;;9.45;2.28;;;29.20;40.30;;;;;;5054773;28;20587;-59
2023/10/10 09:12:03;;;;;;;8.40;2.20;;;29.20;40.30;;;;;;5052107;28;20024;-59
2023/10/10 09:14:39;;;;;;;15.43;3.05;;;29.10;40.40;;;;;;5053727;28;20383;-53
2023/10/10 09:17:32;;;;;;;14.17;3.00;;;29.10;40.50;;;;;;5056841;28;20025;-55
2023/10/10 09:20:00;;;;;;;14.10;3.05;;;29.00;41.00;;;;;;5055226;28;20040;-56
2023/10/10 09:22:43;;;;;;;21.60;5.57;;;28.90;41.30;;;;;;5054665;28;20013;-56
2023/10/10 09:25:27;;;;;;;20.75;4.78;;;28.90;43.30;;;;;;5054770;28;21202;-53
2023/10/10 09:28:08;;;;;;;24.10;5.80;;;28.90;45.20;;;;;;5053019;28;20066;-58
2023/10/10 09:30:40;;;;;;;27.35;5.47;;;28.90;45.80;;;;;;5055984;28;20496;-55
2023/10/10 09:35:59;;;;;;;18.67;5.57;;;28.90;45.50;;;;;;5055362;28;20020;-54
2023/10/10 09:38:46;;;;;;;13.90;5.43;;;28.80;46.10;;;;;;5055053;28;20020;-57
2023/10/10 09:42:00;;;;;;;24.30;6.38;;;28.90;47.10;;;;;;5053882;28;20033;-57
2023/10/10 09:55:34;;;;;;;30.08;9.13;;;28.70;64.80;;;;;;5053028;28;20024;-57
2023/10/10 09:58:00;;;;;;;28.20;8.43;;;28.70;67.70;;;;;;5053630;28;20052;-56
2023/10/10 10:06:35;;;;;;;42.47;9.65;;;28.50;73.60;;;;;;5052978;28;20071;-58
2023/10/10 10:09:18;;;;;;;30.83;8.48;;;28.30;73.60;;;;;;5043977;28;20029;-56
2023/10/10 10:11:56;;;;;;;33.63;9.27;;;28.30;73.10;;;;;;5056096;28;20048;-53
2023/10/10 10:14:39;;;;;;;24.27;7.85;;;28.20;73.00;;;;;;5054927;28;20024;-56
2023/10/10 10:17:19;;;;;;;24.90;8.32;;;28.10;72.10;;;;;;5052601;28;20021;-55
2023/10/10 10:19:45;;;;;;;29.30;7.53;;;28.10;68.80;;;;;;5051117;28;20021;-56
2023/10/10 10:22:17;;;;;;;22.90;6.95;;;28.00;63.10;;;;;;5051265;28;20017;-59
2023/10/10 10:24:46;;;;;;;17.40;5.72;;;27.90;58.10;;;;;;5051701;28;20020;-56
2023/10/10 10:30:44;;;;;;;55.30;6.95;;;27.80;58.80;;;;;;5053673;28;20098;-57
2023/10/10 10:32:47;;;;;;;28.92;6.55;;;27.80;60.50;;;;;;5050601;28;20017;-57
2023/10/10 10:35:23;;;;;;;25.67;6.70;;;27.70;61.70;;;;;;5053271;28;20048;-56
2023/10/10 10:38:05;;;;;;;28.20;6.82;;;27.70;64.90;;;;;;5047888;28;20814;-58
2023/10/10 10:43:14;;;;;;;25.83;8.05;;;27.60;69.50;;;;;;5052666;28;20017;-58
2023/10/10 10:45:44;;;;;;;18.88;7.45;;;27.50;72.70;;;;;;5052112;28;20059;-56
2023/10/10 10:51:22;;;;;;;17.20;6.43;;;27.40;77.20;;;;;;5053083;28;20552;-56
2023/10/10 10:53:56;;;;;;;16.70;5.53;;;27.40;78.60;;;;;;5051969;28;20385;-55
2023/10/10 10:59:12;;;;;;;12.50;4.93;;;27.30;76.70;;;;;;5052815;28;20028;-56
2023/10/10 11:01:57;;;;;;;15.82;6.07;;;27.20;76.40;;;;;;5052402;28;20021;-57
2023/10/10 11:07:01;;;;;;;61.90;9.73;;;27.20;75.80;;;;;;5052005;28;20112;-56
2023/10/10 11:09:36;;;;;;;24.45;6.38;;;27.10;75.60;;;;;;5050681;28;20529;-59
2023/10/10 11:12:08;;;;;;;18.98;6.30;;;27.20;75.70;;;;;;5054606;28;20051;-55
2023/10/10 11:14:44;;;;;;;19.65;6.47;;;27.10;75.90;;;;;;5052770;28;20480;-58
2023/10/10 11:17:20;;;;;;;12.93;5.50;;;27.10;75.90;;;;;;5046402;28;20017;-58
2023/10/10 11:19:48;;;;;;;;;;;27.10;76.50;;;;;;5051326;28;20389;-57
2023/10/10 11:25:04;;;;;;;18.85;6.82;;;27.00;83.20;;;;;;5051991;28;20116;-57
2023/10/10 11:27:43;;;;;;;20.67;6.43;;;27.00;86.80;;;;;;5052752;28;20071;-58
2023/10/10 11:30:12;;;;;;;14.20;5.75;;;27.00;88.80;;;;;;5054081;28;20682;-57
2023/10/10 11:32:48;;;;;;;17.65;6.22;;;27.00;90.60;;;;;;5051357;28;20095;-56
2023/10/10 11:35:26;;;;;;;14.18;6.20;;;27.00;91.60;;;;;;5051501;28;20503;-53
2023/10/10 11:38:16;;;;;;;22.50;6.63;;;27.00;92.60;;;;;;5053900;28;20035;-56
2023/10/10 11:40:44;;;;;;;20.80;6.80;;;26.90;93.70;;;;;;5052319;28;20082;-55
2023/10/10 11:43:17;;;;;;;19.08;6.32;;;27.00;96.50;;;;;;5054745;28;20017;-57
2023/10/10 11:45:51;;;;;;;19.83;6.35;;;27.00;97.40;;;;;;5054232;28;20158;-57
2023/10/10 11:48:17;;;;;;;17.05;6.03;;;26.90;98.10;;;;;;5052566;28;20032;-60
2023/10/10 11:50:52;;;;;;;16.27;6.07;;;26.90;99.50;;;;;;5050053;28;20041;-56
2023/10/10 11:53:23;;;;;;;13.40;5.82;;;26.90;99.80;;;;;;5056337;28;20020;-56
2023/10/10 11:55:54;;;;;;;19.25;6.25;;;26.90;99.90;;;;;;5053148;28;20033;-56
2023/10/10 11:58:23;;;;;;;15.15;6.25;;;26.90;99.90;;;;;;5050648;28;20033;-57
2023/10/10 12:01:10;;;;;;;13.52;6.43;;;26.80;99.90;;;;;;5054587;28;20062;-56
2023/10/10 12:06:19;;;;;;;25.40;8.40;;;26.70;99.90;;;;;;5052452;28;19970;-57
2023/10/10 12:08:48;;;;;;;18.48;7.68;;;26.60;99.90;;;;;;5051538;28;20021;-57
2023/10/10 12:11:19;;;;;;;22.13;7.40;;;26.60;99.90;;;;;;5080678;28;20067;-60
2023/10/10 12:13:50;;;;;;;17.38;7.88;;;26.50;99.90;;;;;;5054801;28;20040;-59
2023/10/10 12:16:17;;;;;;;27.05;9.30;;;26.50;99.90;;;;;;5053152;28;20033;-57
2023/10/10 12:18:54;;;;;;;25.45;10.38;;;26.60;99.90;;;;;;5056861;28;20469;-59
2023/10/10 12:21:21;;;;;;;31.02;9.60;;;26.60;99.90;;;;;;5056081;28;20059;-60
2023/10/10 12:23:50;;;;;;;22.58;8.88;;;26.60;99.90;;;;;;5056039;28;20021;-59
2023/10/10 12:26:18;;;;;;;18.33;7.53;;;26.50;99.90;;;;;;5055656;28;20032;-55
2023/10/10 12:28:48;;;;;;;25.67;7.63;;;26.40;99.90;;;;;;5056623;28;20554;-57
2023/10/10 12:31:17;;;;;;;21.30;8.40;;;26.40;99.90;;;;;;5057559;28;20028;-58
2023/10/10 12:33:48;;;;;;;27.02;9.35;;;26.40;99.90;;;;;;5056239;28;20017;-59
2023/10/10 12:36:22;;;;;;;21.83;9.00;;;26.30;99.90;;;;;;5054797;28;20739;-57
2023/10/10 12:38:48;;;;;;;30.60;9.38;;;26.30;99.90;;;;;;5055839;28;20405;-59
2023/10/10 12:41:20;;;;;;;20.83;8.75;;;26.20;99.90;;;;;;5055219;28;20058;-56
2023/10/10 12:43:50;;;;;;;28.75;10.48;;;26.20;99.90;;;;;;5055714;28;20012;-58
2023/10/10 12:46:20;;;;;;;31.08;11.50;;;26.20;99.90;;;;;;5056763;28;20032;-58
2023/10/10 12:48:51;;;;;;;27.38;10.93;;;26.20;99.90;;;;;;5055679;28;20025;-60
2023/10/10 12:51:19;;;;;;;34.38;12.10;;;26.10;99.90;;;;;;5054886;28;20020;-58
2023/10/10 12:53:46;;;;;;;39.60;11.82;;;26.10;99.90;;;;;;5054339;28;20053;-56
2023/10/10 12:56:20;;;;;;;22.98;11.05;;;26.10;99.90;;;;;;5055003;28;20028;-55
2023/10/10 12:58:52;;;;;;;30.70;11.75;;;26.10;99.90;;;;;;5054866;28;20374;-58
2023/10/10 13:01:23;;;;;;;30.50;11.88;;;26.10;99.90;;;;;;5056709;28;20021;-56
2023/10/10 13:03:50;;;;;;;32.53;13.25;;;26.00;99.90;;;;;;5055571;28;20131;-56
2023/10/10 13:06:16;;;;;;;33.28;13.80;;;26.00;99.90;;;;;;5054644;28;20027;-57
2023/10/10 13:08:55;;;;;;;38.95;14.65;;;26.10;99.90;;;;;;5056275;28;20371;-57
2023/10/10 13:11:43;;;;;;;33.70;15.25;;;26.00;99.90;;;;;;5057991;28;20071;-57
2023/10/10 13:14:24;;;;;;;49.60;16.80;;;26.00;99.90;;;;;;5055306;28;20032;-58
2023/10/10 13:17:05;;;;;;;72.15;15.70;;;26.00;99.90;;;;;;5053093;28;20016;-60
2023/10/10 13:19:32;;;;;;;48.42;16.05;;;26.00;99.90;;;;;;5054189;28;20044;-61
2023/10/10 13:21:58;;;;;;;59.78;17.73;;;26.00;99.90;;;;;;5052020;28;20017;-56
2023/10/10 13:24:25;;;;;;;42.85;17.13;;;25.90;99.90;;;;;;5056185;28;20056;-55
2023/10/10 13:26:51;;;;;;;44.72;17.48;;;25.90;99.90;;;;;;5053045;28;20028;-58
2023/10/10 13:29:18;;;;;;;42.53;18.95;;;25.80;99.90;;;;;;5054989;28;20503;-55
2023/10/10 13:31:44;;;;;;;54.88;20.40;;;25.70;99.90;;;;;;5055036;28;20039;-57
2023/10/10 13:34:13;;;;;;;49.60;19.83;;;25.60;99.90;;;;;;5057750;28;20040;-59
2023/10/10 13:36:40;;;;;;;47.30;20.25;;;25.60;99.90;;;;;;5056474;28;20058;-60
2023/10/10 13:39:07;;;;;;;58.80;20.92;;;25.60;99.90;;;;;;5055985;28;20020;-58
2023/10/10 13:41:37;;;;;;;48.95;18.10;;;25.60;99.90;;;;;;5051694;28;20028;-57
2023/10/10 13:44:04;;;;;;;56.25;19.42;;;25.50;99.90;;;;;;5052614;28;20012;-58
2023/10/10 13:46:37;;;;;;;54.22;19.95;;;25.50;99.90;;;;;;5053909;28;20021;-60
2023/10/10 13:49:04;;;;;;;58.92;19.17;;;25.40;99.90;;;;;;5057521;28;20021;-57
2023/10/10 13:51:39;;;;;;;57.80;21.83;;;25.40;99.90;;;;;;5064020;28;20015;-57
2023/10/10 13:54:06;;;;;;;72.63;23.60;;;25.40;99.90;;;;;;5062881;28;20089;-57
2023/10/10 13:56:32;;;;;;;54.72;21.77;;;25.40;99.90;;;;;;5049360;28;20037;-55
2023/10/10 13:59:02;;;;;;;56.90;21.23;;;25.50;99.90;;;;;;5048962;28;20027;-59
2023/10/10 14:04:13;;;;;;;55.28;21.98;;;25.40;99.90;;;;;;5064505;28;20070;-56
2023/10/10 14:06:45;;;;;;;58.10;23.48;;;25.40;99.90;;;;;;5067744;28;20400;-55
2023/10/10 14:09:22;;;;;;;65.82;23.30;;;25.40;99.90;;;;;;5056562;28;20029;-61
2023/10/10 14:11:56;;;;;;;63.17;22.40;;;25.40;99.90;;;;;;5061962;28;20016;-57
2023/10/10 14:14:23;;;;;;;56.03;22.02;;;25.40;99.90;;;;;;5058361;28;20013;-59
2023/10/10 14:16:51;;;;;;;70.15;21.95;;;25.40;99.90;;;;;;5055572;28;20031;-58
2023/10/10 14:19:17;;;;;;;52.33;20.52;;;25.40;99.90;;;;;;5064487;28;20012;-59
2023/10/10 14:21:47;;;;;;;63.20;22.33;;;25.40;99.90;;;;;;5049101;28;20476;-58
2023/10/10 14:24:13;;;;;;;65.80;23.35;;;25.40;99.90;;;;;;5067644;28;20412;-59
2023/10/10 14:26:43;;;;;;;56.67;21.42;;;25.50;99.90;;;;;;5050297;28;20465;-62
2023/10/10 14:29:13;;;;;;;63.63;20.48;;;25.50;99.90;;;;;;5053363;28;20060;-56
2023/10/10 14:31:44;;;;;;;59.90;20.30;;;25.50;99.90;;;;;;5063269;28;20021;-59
2023/10/10 14:34:38;;;;;;;53.50;19.90;;;25.60;99.90;;;;;;5057450;28;20021;-63
2023/10/10 14:37:00;;;;;;;65.97;19.65;;;25.60;99.90;;;;;;5054546;28;20060;-58
2023/10/10 14:39:44;;;;;;;59.53;19.73;;;25.60;99.90;;;;;;5053722;28;20063;-59
2023/10/10 14:42:11;;;;;;;55.40;19.65;;;25.70;99.90;;;;;;5054009;28;20388;-56
2023/10/10 14:44:40;;;;;;;56.63;17.50;;;25.70;99.90;;;;;;5052054;28;20020;-56
2023/10/10 14:47:09;;;;;;;62.53;16.52;;;25.80;99.90;;;;;;5050888;28;20086;-58
2023/10/10 14:49:38;;;;;;;68.88;16.98;;;25.90;99.90;;;;;;5055463;28;20075;-58
2023/10/10 14:52:05;;;;;;;50.50;15.13;;;25.90;99.90;;;;;;5059725;28;20028;-56
2023/10/10 14:54:37;;;;;;;47.60;15.70;;;26.00;99.90;;;;;;5060248;28;20373;-56
2023/10/10 14:57:04;;;;;;;39.60;14.48;;;26.00;99.90;;;;;;5053252;28;20090;-57
2023/10/10 14:59:31;;;;;;;49.35;16.02;;;26.00;99.90;;;;;;5049921;28;20099;-61
2023/10/10 15:02:00;;;;;;;35.78;13.57;;;26.10;99.90;;;;;;5058591;28;20017;-55
2023/10/10 15:04:30;;;;;;;49.28;16.10;;;26.30;99.90;;;;;;5063698;28;20028;-59
2023/10/10 15:06:58;;;;;;;35.75;13.55;;;26.30;99.90;;;;;;5057538;28;20088;-59
2023/10/10 15:09:25;;;;;;;60.47;14.68;;;26.40;99.90;;;;;;5068002;28;20044;-59
2023/10/10 15:12:01;;;;;;;41.92;14.05;;;26.50;99.90;;;;;;5048191;28;20019;-59
2023/10/10 15:14:33;;;;;;;42.90;14.93;;;26.50;99.90;;;;;;5065676;28;20372;-58
2023/10/10 15:17:04;;;;;;;48.00;13.68;;;26.60;99.90;;;;;;5052009;28;20083;-58
2023/10/10 15:19:46;;;;;;;47.47;14.93;;;26.80;99.90;;;;;;5048549;28;20086;-58
2023/10/10 15:22:16;;;;;;;50.67;14.27;;;26.90;99.90;;;;;;5060620;28;20029;-57
2023/10/10 15:24:42;;;;;;;38.33;14.13;;;27.00;99.90;;;;;;5055328;28;20415;-56
2023/10/10 15:27:10;;;;;;;45.67;17.13;;;27.00;99.90;;;;;;5052494;28;20465;-58
2023/10/10 15:29:39;;;;;;;53.03;18.30;;;27.10;99.90;;;;;;5056401;28;20017;-56
2023/10/10 15:32:06;;;;;;;55.95;18.23;;;27.20;99.90;;;;;;5059902;28;20025;-63
2023/10/10 15:34:33;;;;;;;54.85;16.23;;;27.30;99.90;;;;;;5059864;28;20035;-60
2023/10/10 15:37:00;;;;;;;56.38;16.52;;;27.30;99.90;;;;;;5054941;28;20017;-61
2023/10/10 15:39:27;;;;;;;43.35;14.73;;;27.50;99.90;;;;;;5055966;28;20100;-62
2023/10/10 15:41:53;;;;;;;47.63;14.93;;;27.60;99.90;;;;;;5056616;28;20040;-62
2023/10/10 15:44:21;;;;;;;81.03;17.77;;;27.80;99.90;;;;;;5058194;28;20028;-60
2023/10/10 15:46:53;;;;;;;57.22;16.83;;;28.00;99.90;;;;;;5055271;28;20029;-58
2023/10/10 15:49:20;;;;;;;93.85;18.15;;;28.10;99.90;;;;;;5050687;28;20035;-59
2023/10/10 15:51:47;;;;;;;119.97;20.60;;;28.20;99.90;;;;;;5048624;28;20405;-63
2023/10/10 15:54:14;;;;;;;45.15;13.80;;;28.40;99.90;;;;;;5056918;28;20115;-58
2023/10/10 15:56:41;;;;;;;159.60;20.45;;;28.50;99.90;;;;;;5054392;28;20767;-57
2023/10/10 15:59:08;;;;;;;38.70;12.80;;;28.70;99.90;;;;;;5055458;28;20469;-57
2023/10/10 16:01:34;;;;;;;51.85;14.00;;;28.80;99.90;;;;;;5067968;28;20519;-58
2023/10/10 16:04:17;;;;;;;98.07;16.90;;;28.90;99.90;;;;;;5059461;28;20025;-58
2023/10/10 16:06:50;;;;;;;59.17;15.27;;;29.20;99.90;;;;;;5062212;28;20023;-55